createdAt,value
2018-01-16T00:01:30.625Z,6.20
2018-01-16T00:03:58.169Z,6.20
2018-01-16T00:06:25.702Z,6.00
2018-01-16T00:08:54.015Z,5.80
2018-01-16T00:11:21.538Z,5.80
2018-01-16T00:13:49.852Z,5.60
2018-01-16T00:16:17.378Z,5.60
2018-01-16T00:18:45.692Z,5.50
2018-01-16T00:21:13.226Z,5.50
2018-01-16T00:23:40.781Z,5.50
2018-01-16T00:26:09.063Z,5.40
2018-01-16T00:28:36.595Z,5.40
2018-01-16T00:31:04.146Z,5.40
2018-01-16T00:33:31.679Z,5.50
2018-01-16T00:35:59.225Z,5.40
2018-01-16T00:38:26.745Z,5.40
2018-01-16T00:40:55.067Z,5.30
2018-01-16T00:43:22.599Z,5.30
2018-01-16T00:45:50.141Z,5.30
2018-01-16T00:48:17.690Z,5.30
2018-01-16T00:50:45.243Z,5.20
2018-01-16T00:53:12.766Z,5.20
2018-01-16T00:55:40.314Z,5.20
2018-01-16T00:58:07.833Z,5.10
2018-01-16T01:00:36.153Z,5.00
2018-01-16T01:03:03.682Z,4.90
2018-01-16T01:05:31.994Z,4.90
2018-01-16T01:07:59.513Z,4.90
2018-01-16T01:10:27.828Z,4.80
2018-01-16T01:12:55.351Z,4.80
2018-01-16T01:15:23.662Z,4.70
2018-01-16T01:17:51.190Z,4.70
2018-01-16T01:20:19.500Z,4.70
2018-01-16T01:22:47.019Z,4.70
2018-01-16T01:25:15.559Z,5.00
2018-01-16T01:27:43.078Z,5.00
2018-01-16T01:30:10.601Z,5.10
2018-01-16T01:32:38.155Z,5.10
2018-01-16T01:35:05.687Z,5.20
2018-01-16T01:37:33.242Z,5.20
2018-01-16T01:40:00.764Z,5.30
2018-01-16T01:42:29.082Z,5.40
2018-01-16T01:44:56.614Z,5.40
2018-01-16T01:47:24.163Z,5.50
2018-01-16T01:49:52.454Z,5.50
2018-01-16T01:52:19.992Z,5.50
2018-01-16T01:54:48.282Z,5.70
2018-01-16T01:57:15.837Z,5.70
2018-01-16T01:59:43.376Z,5.60
2018-01-16T02:02:10.929Z,5.70
2018-01-16T02:04:38.449Z,5.60
2018-01-16T02:07:05.989Z,5.50
2018-01-16T02:09:33.512Z,5.50
2018-01-16T02:12:01.061Z,5.50
2018-01-16T02:14:28.587Z,5.40
2018-01-16T02:16:56.136Z,5.40
2018-01-16T02:19:23.656Z,5.40
2018-01-16T02:21:51.366Z,5.30
2018-01-16T02:24:18.895Z,5.30
2018-01-16T02:26:47.177Z,5.30
2018-01-16T02:29:14.718Z,5.20
2018-01-16T02:31:43.019Z,5.20
2018-01-16T02:34:10.575Z,5.20
2018-01-16T02:36:38.105Z,5.20
2018-01-16T02:39:05.649Z,5.20
2018-01-16T02:41:33.173Z,5.20
2018-01-16T02:44:00.718Z,5.10
2018-01-16T02:46:28.245Z,5.10
2018-01-16T02:48:55.799Z,5.20
2018-01-16T02:51:23.322Z,5.20
2018-01-16T02:53:50.861Z,5.30
2018-01-16T02:56:18.384Z,5.30
2018-01-16T02:58:46.702Z,5.50
2018-01-16T03:01:14.218Z,5.50
2018-01-16T03:03:41.767Z,5.50
2018-01-16T03:06:09.298Z,5.50
2018-01-16T03:08:36.842Z,5.60
2018-01-16T03:11:04.366Z,5.60
2018-01-16T03:13:32.676Z,5.70
2018-01-16T03:16:00.203Z,5.70
2018-01-16T03:18:28.516Z,5.70
2018-01-16T03:20:56.041Z,5.70
2018-01-16T03:23:24.562Z,5.70
2018-01-16T03:25:52.086Z,5.70
2018-01-16T03:28:20.377Z,5.80
2018-01-16T03:30:47.937Z,5.80
2018-01-16T03:33:15.466Z,5.80
2018-01-16T03:35:43.014Z,5.80
2018-01-16T03:38:10.534Z,5.80
2018-01-16T03:40:38.082Z,5.80
2018-01-16T03:43:05.601Z,5.80
2018-01-16T03:45:33.149Z,5.80
2018-01-16T03:48:00.674Z,5.80
2018-01-16T03:50:28.223Z,5.80
2018-01-16T03:52:55.758Z,5.80
2018-01-16T03:55:24.071Z,5.80
2018-01-16T03:57:51.589Z,5.80
2018-01-16T04:00:19.909Z,5.80
2018-01-16T04:02:47.431Z,5.70
2018-01-16T04:05:15.745Z,5.70
2018-01-16T04:07:43.279Z,5.70
2018-01-16T04:10:10.823Z,5.70
2018-01-16T04:12:39.110Z,5.70
2018-01-16T04:15:07.418Z,5.70
2018-01-16T04:17:34.943Z,5.70
2018-01-16T04:20:03.250Z,5.60
2018-01-16T04:22:30.769Z,5.60
2018-01-16T04:24:59.075Z,5.70
2018-01-16T04:27:26.598Z,5.70
2018-01-16T04:29:54.113Z,5.70
2018-01-16T04:32:21.653Z,5.70
2018-01-16T04:34:49.169Z,5.60
2018-01-16T04:37:16.742Z,5.60
2018-01-16T04:39:45.035Z,5.70
2018-01-16T04:42:12.574Z,5.60
2018-01-16T04:44:40.870Z,5.70
2018-01-16T04:47:09.177Z,5.80
2018-01-16T04:49:36.702Z,5.70
2018-01-16T04:52:05.012Z,5.80
2018-01-16T04:54:32.543Z,5.80
2018-01-16T04:57:00.121Z,5.80
2018-01-16T04:59:27.648Z,5.90
2018-01-16T05:01:55.953Z,5.90
2018-01-16T05:04:23.477Z,5.90
2018-01-16T05:06:51.029Z,5.90
2018-01-16T05:09:18.569Z,5.90
2018-01-16T05:11:46.122Z,5.90
2018-01-16T05:14:13.649Z,5.70
2018-01-16T05:16:41.233Z,5.70
2018-01-16T05:19:08.757Z,5.70
2018-01-16T05:21:36.302Z,5.70
2018-01-16T05:24:04.589Z,5.70
2018-01-16T05:26:32.128Z,5.70
2018-01-16T05:28:59.699Z,5.70
2018-01-16T05:31:27.994Z,5.70
2018-01-16T05:33:55.542Z,5.70
2018-01-16T05:36:23.090Z,5.70
2018-01-16T05:38:51.408Z,5.70
2018-01-16T05:41:18.963Z,5.70
2018-01-16T05:43:46.517Z,5.70
2018-01-16T05:46:14.042Z,5.70
2018-01-16T05:48:42.362Z,5.80
2018-01-16T05:51:09.894Z,5.80
2018-01-16T05:53:38.210Z,5.80
2018-01-16T05:56:05.726Z,5.70
2018-01-16T05:58:34.035Z,5.80
2018-01-16T06:01:01.558Z,5.80
2018-01-16T06:03:29.882Z,5.80
2018-01-16T06:05:57.402Z,5.80
2018-01-16T06:08:25.727Z,5.90
2018-01-16T06:10:53.259Z,5.80
2018-01-16T06:13:20.812Z,5.90
2018-01-16T06:15:48.337Z,5.90
2018-01-16T06:18:15.885Z,5.90
2018-01-16T06:20:43.411Z,5.90
2018-01-16T06:23:10.999Z,6.00
2018-01-16T06:25:38.510Z,6.00
2018-01-16T06:28:06.025Z,6.10
2018-01-16T06:52:05.523Z,5.90
2018-01-16T06:54:33.077Z,5.90
2018-01-16T06:57:00.616Z,5.90
2018-01-16T06:59:28.938Z,5.80
2018-01-16T07:01:56.483Z,5.80
2018-01-16T07:04:24.037Z,5.90
2018-01-16T07:06:51.566Z,5.90
2018-01-16T07:09:19.114Z,5.90
2018-01-16T07:11:46.646Z,6.00
2018-01-16T07:14:14.195Z,6.00
2018-01-16T07:16:41.726Z,6.00
2018-01-16T07:19:10.025Z,6.20
2018-01-16T07:21:37.582Z,6.20
2018-01-16T07:24:05.109Z,6.10
2018-01-16T07:26:33.427Z,6.10
2018-01-16T07:29:00.954Z,6.10
2018-01-16T07:31:29.269Z,6.10
2018-01-16T07:33:56.794Z,6.10
2018-01-16T07:36:25.115Z,6.20
2018-01-16T07:38:52.645Z,6.20
2018-01-16T07:41:20.214Z,6.20
2018-01-16T07:43:47.746Z,6.20
2018-01-16T07:46:16.060Z,6.20
2018-01-16T07:48:43.589Z,6.20
2018-01-16T07:51:11.910Z,6.20
2018-01-16T07:53:39.440Z,6.20
2018-01-16T07:56:06.993Z,6.20
2018-01-16T07:58:34.521Z,6.30
2018-01-16T08:01:02.068Z,6.20
2018-01-16T08:03:29.594Z,6.20
2018-01-16T08:05:57.149Z,6.40
2018-01-16T08:08:24.677Z,6.40
2018-01-16T08:10:53.003Z,6.40
2018-01-16T08:13:20.525Z,6.40
2018-01-16T08:15:48.069Z,6.40
2018-01-16T08:18:16.358Z,6.30
2018-01-16T08:20:43.913Z,6.30
2018-01-16T08:23:12.207Z,6.50
2018-01-16T08:25:39.733Z,6.50
2018-01-16T08:28:08.046Z,6.60
2018-01-16T08:30:35.570Z,6.60
2018-01-16T08:33:03.121Z,6.60
2018-01-16T08:35:30.645Z,6.50
2018-01-16T08:37:58.194Z,6.60
2018-01-16T08:40:25.709Z,6.50
2018-01-16T08:42:54.029Z,6.50
2018-01-16T08:45:21.564Z,6.50
2018-01-16T08:47:49.121Z,6.50
2018-01-16T08:50:17.409Z,6.50
2018-01-16T08:52:44.958Z,6.50
2018-01-16T08:55:12.490Z,6.50
2018-01-16T08:57:40.051Z,6.60
2018-01-16T09:00:07.595Z,6.50
2018-01-16T09:02:35.137Z,6.50
2018-01-16T09:05:02.661Z,6.60
2018-01-16T09:07:30.210Z,6.60
2018-01-16T09:09:58.505Z,6.70
2018-01-16T09:12:26.050Z,6.70
2018-01-16T09:14:54.338Z,6.70
2018-01-16T09:17:21.885Z,6.70
2018-01-16T09:19:50.178Z,6.70
2018-01-16T09:22:17.707Z,6.70
2018-01-16T09:24:46.025Z,6.60
2018-01-16T09:27:14.309Z,6.50
2018-01-16T09:29:41.850Z,6.50
2018-01-16T09:32:09.382Z,6.50
2018-01-16T09:34:37.700Z,6.30
2018-01-16T09:37:05.226Z,6.30
2018-01-16T09:39:33.542Z,6.00
2018-01-16T09:42:01.075Z,6.00
2018-01-16T09:44:28.625Z,5.90
2018-01-16T09:46:56.919Z,5.80
2018-01-16T09:49:24.473Z,5.80
2018-01-16T09:51:52.001Z,6.00
2018-01-16T09:54:19.555Z,5.90
2018-01-16T09:56:47.086Z,5.90
2018-01-16T09:59:14.646Z,6.00
2018-01-16T10:01:42.175Z,5.90
2018-01-16T10:04:09.719Z,6.00
2018-01-16T10:06:38.006Z,6.00
2018-01-16T10:09:05.554Z,6.00
2018-01-16T10:11:33.842Z,6.00
2018-01-16T10:14:01.387Z,6.00
2018-01-16T10:16:29.684Z,6.10
2018-01-16T10:18:57.218Z,6.10
2018-01-16T10:21:25.530Z,6.10
2018-01-16T10:23:53.046Z,6.10
2018-01-16T10:26:20.597Z,6.10
2018-01-16T10:28:48.127Z,6.00
2018-01-16T10:31:15.678Z,5.70
2018-01-16T10:33:43.205Z,5.70
2018-01-16T10:36:16.646Z,5.70
2018-01-16T10:38:44.175Z,5.70
2018-01-16T10:41:11.733Z,5.70
2018-01-16T10:43:39.266Z,5.60
2018-01-16T10:46:07.583Z,5.70
2018-01-16T10:48:35.102Z,5.70
2018-01-16T10:51:02.646Z,5.80
2018-01-16T10:53:30.177Z,5.80
2018-01-16T10:55:57.726Z,5.80
2018-01-16T10:58:25.254Z,5.90
2018-01-16T11:00:53.570Z,5.90
2018-01-16T11:03:21.099Z,5.80
2018-01-16T11:05:48.653Z,5.90
2018-01-16T11:08:16.938Z,5.90
2018-01-16T11:10:44.496Z,5.90
2018-01-16T11:13:12.025Z,6.00
2018-01-16T11:15:39.574Z,6.00
2018-01-16T11:18:07.098Z,6.00
2018-01-16T11:20:34.646Z,6.00
2018-01-16T11:23:02.173Z,6.00
2018-01-16T11:25:30.466Z,5.90
2018-01-16T11:27:58.024Z,5.90
2018-01-16T11:30:26.318Z,5.80
2018-01-16T11:32:53.873Z,5.80
2018-01-16T11:35:21.393Z,5.80
2018-01-16T11:37:49.722Z,5.80
2018-01-16T11:40:17.249Z,5.80
2018-01-16T11:42:45.562Z,6.10
2018-01-16T11:45:13.086Z,6.10
2018-01-16T11:47:41.399Z,6.30
2018-01-16T11:50:08.922Z,6.20
2018-01-16T11:52:37.237Z,6.10
2018-01-16T11:55:04.769Z,6.10
2018-01-16T11:57:32.322Z,6.10
2018-01-16T12:00:00.609Z,6.10
2018-01-16T12:02:28.163Z,6.10
2018-01-16T12:04:55.690Z,6.10
2018-01-16T12:07:23.242Z,6.10
2018-01-16T12:09:50.763Z,6.10
2018-01-16T12:12:18.318Z,6.10
2018-01-16T12:14:45.862Z,6.20
2018-01-16T12:17:13.416Z,6.20
2018-01-16T12:19:41.712Z,6.20
2018-01-16T12:22:09.262Z,6.20
2018-01-16T12:24:36.789Z,6.30
2018-01-16T12:27:04.326Z,6.40
2018-01-16T12:29:31.875Z,6.50
2018-01-16T12:31:59.412Z,6.50
2018-01-16T12:34:26.955Z,6.60
2018-01-16T12:36:54.491Z,6.40
2018-01-16T12:39:22.038Z,6.40
2018-01-16T12:41:49.561Z,6.40
2018-01-16T12:44:17.118Z,6.30
2018-01-16T12:46:44.642Z,6.30
2018-01-16T12:49:12.967Z,6.20
2018-01-16T12:51:40.496Z,6.20
2018-01-16T12:54:08.052Z,6.20
2018-01-16T12:56:35.584Z,6.20
2018-01-16T12:59:03.142Z,6.20
2018-01-16T13:01:30.669Z,6.20
2018-01-16T13:03:58.214Z,6.10
2018-01-16T13:06:25.741Z,6.10
2018-01-16T13:08:54.060Z,6.10
2018-01-16T13:11:21.586Z,6.00
2018-01-16T13:13:49.130Z,6.10
2018-01-16T13:16:17.422Z,6.20
2018-01-16T13:18:44.978Z,6.20
2018-01-16T13:21:13.262Z,6.10
2018-01-16T13:23:40.814Z,6.00
2018-01-16T13:26:08.350Z,6.10
2018-01-16T13:28:35.868Z,6.10
2018-01-16T13:31:03.416Z,6.10
2018-01-16T13:33:30.947Z,6.20
2018-01-16T13:35:59.259Z,6.30
2018-01-16T13:38:26.778Z,6.30
2018-01-16T13:40:55.137Z,6.30
2018-01-16T13:43:22.651Z,6.30
2018-01-16T13:45:50.208Z,6.20
2018-01-16T13:48:17.762Z,6.10
2018-01-16T13:50:45.326Z,6.00
2018-01-16T13:53:12.849Z,6.10
2018-01-16T13:55:41.168Z,6.00
2018-01-16T13:58:08.694Z,6.00
2018-01-16T14:00:37.011Z,5.90
2018-01-16T14:03:04.538Z,5.90
2018-01-16T14:05:32.087Z,6.00
2018-01-16T14:08:00.383Z,5.90
2018-01-16T14:10:27.985Z,5.90
2018-01-16T14:12:55.492Z,5.80
2018-01-16T14:15:23.802Z,5.50
2018-01-16T14:17:51.331Z,5.50
2018-01-16T14:20:18.877Z,5.40
2018-01-16T14:22:47.178Z,5.30
2018-01-16T14:25:14.726Z,5.30
2018-01-16T14:27:43.017Z,5.30
2018-01-16T14:30:10.547Z,5.30
2018-01-16T14:32:38.906Z,5.30
2018-01-16T14:35:06.442Z,5.30
2018-01-16T14:37:33.994Z,5.30
2018-01-16T14:40:01.519Z,5.30
2018-01-16T14:42:29.829Z,5.10
2018-01-16T14:44:57.358Z,5.10
2018-01-16T14:47:24.906Z,5.10
2018-01-16T14:49:53.224Z,4.90
2018-01-16T14:52:20.781Z,4.90
2018-01-16T14:54:48.307Z,4.90
2018-01-16T14:57:16.631Z,4.80
2018-01-16T14:59:44.167Z,4.80
2018-01-16T15:02:11.717Z,4.80
2018-01-16T15:04:39.247Z,4.80
2018-01-16T15:07:06.810Z,4.90
2018-01-16T15:09:34.331Z,4.80
2018-01-16T15:12:01.890Z,4.80
2018-01-16T15:14:29.415Z,4.80
2018-01-16T15:16:56.975Z,4.80
2018-01-16T15:19:24.501Z,4.90
2018-01-16T15:21:52.050Z,4.90
2018-01-16T15:24:19.579Z,4.90
2018-01-16T15:26:47.119Z,4.90
2018-01-16T15:29:14.670Z,4.90
2018-01-16T15:31:42.193Z,5.00
2018-01-16T15:34:09.738Z,5.10
2018-01-16T15:36:38.027Z,5.20
2018-01-16T15:39:05.586Z,5.20
2018-01-16T15:41:33.118Z,5.30
2018-01-16T15:44:01.434Z,5.40
2018-01-16T15:46:28.958Z,5.40
2018-01-16T15:48:56.512Z,5.40
2018-01-16T15:51:24.038Z,5.50
2018-01-16T15:53:51.594Z,5.50
2018-01-16T15:56:19.131Z,5.50
2018-01-16T15:58:47.444Z,5.50
2018-01-16T16:01:14.970Z,5.50
2018-01-16T16:03:43.288Z,5.60
2018-01-16T16:06:10.815Z,5.60
2018-01-16T16:08:39.138Z,5.50
2018-01-16T16:11:06.659Z,5.50
2018-01-16T16:13:34.972Z,5.50
2018-01-16T16:16:02.498Z,5.50
2018-01-16T16:18:30.814Z,5.50
2018-01-16T16:20:58.334Z,5.50
2018-01-16T16:23:25.878Z,5.50
2018-01-16T16:25:54.174Z,5.50
2018-01-16T16:28:21.722Z,5.40
2018-01-16T16:30:50.015Z,5.40
2018-01-16T16:33:17.568Z,5.40
2018-01-16T16:35:45.102Z,5.00
2018-01-16T16:38:12.632Z,4.60
2018-01-16T16:40:40.178Z,4.10
2018-01-16T16:43:07.702Z,3.90
2018-01-16T16:45:36.010Z,3.70
2018-01-16T16:48:03.530Z,3.60
2018-01-16T16:50:31.839Z,3.30
2018-01-16T16:52:59.365Z,3.30
2018-01-16T16:55:27.694Z,3.10
2018-01-16T16:57:55.250Z,3.10
2018-01-16T17:00:22.801Z,3.20
2018-01-16T17:02:50.343Z,3.10
2018-01-16T17:05:17.893Z,3.00
2018-01-16T17:07:45.437Z,2.90
2018-01-16T17:10:13.760Z,2.90
2018-01-16T17:12:41.290Z,2.90
2018-01-16T17:15:08.850Z,2.80
2018-01-16T17:17:36.381Z,2.80
2018-01-16T17:20:03.934Z,2.80
2018-01-16T17:22:31.469Z,2.80
2018-01-16T17:24:59.025Z,2.80
2018-01-16T17:27:26.561Z,2.70
2018-01-16T17:29:54.089Z,2.70
2018-01-16T17:32:22.407Z,2.60
2018-01-16T17:34:49.953Z,2.60
2018-01-16T17:37:17.503Z,2.70
2018-01-16T17:39:45.800Z,2.60
2018-01-16T17:42:13.357Z,2.60
2018-01-16T17:44:40.877Z,2.60
2018-01-16T17:47:08.450Z,2.60
2018-01-16T17:49:36.773Z,2.60
2018-01-16T17:52:04.331Z,2.60
2018-01-16T17:54:31.862Z,2.60
2018-01-16T17:56:59.412Z,2.70
2018-01-16T17:59:27.698Z,2.70
2018-01-16T18:01:56.017Z,2.70
2018-01-16T18:04:23.574Z,2.70
2018-01-16T18:06:51.109Z,2.70
2018-01-16T18:09:18.633Z,2.70
2018-01-16T18:11:46.953Z,2.70
2018-01-16T18:14:14.485Z,2.70
2018-01-16T18:16:42.034Z,2.70
2018-01-16T18:19:10.340Z,2.70
2018-01-16T18:21:37.898Z,2.70
2018-01-16T18:24:05.425Z,2.70
2018-01-16T18:26:33.742Z,2.80
2018-01-16T18:29:01.274Z,2.80
2018-01-16T18:31:29.586Z,2.80
2018-01-16T18:33:57.125Z,2.80
2018-01-16T18:36:24.646Z,2.80
2018-01-16T18:38:52.197Z,2.80
2018-01-16T18:41:20.487Z,2.80
2018-01-16T18:43:48.038Z,2.80
2018-01-16T18:46:15.566Z,2.80
2018-01-16T18:48:43.123Z,2.80
2018-01-16T18:51:10.651Z,2.80
2018-01-16T18:53:38.202Z,2.70
2018-01-16T18:56:06.500Z,2.70
2018-01-16T18:58:34.049Z,2.70
2018-01-16T19:01:01.586Z,2.70
2018-01-16T19:03:29.904Z,2.50
2018-01-16T19:05:57.443Z,2.50
2018-01-16T19:08:25.002Z,2.50
2018-01-16T19:10:52.542Z,2.60
2018-01-16T19:13:20.867Z,2.60
2018-01-16T19:15:48.394Z,2.60
2018-01-16T19:18:16.706Z,2.60
2018-01-16T19:20:44.232Z,2.60
2018-01-16T19:23:12.541Z,2.50
2018-01-16T19:25:40.074Z,2.40
2018-01-16T19:28:07.618Z,2.40
2018-01-16T19:30:35.914Z,2.30
2018-01-16T19:33:03.443Z,2.30
2018-01-16T19:35:30.994Z,2.30
2018-01-16T19:37:58.526Z,2.40
2018-01-16T19:40:26.077Z,2.30
2018-01-16T19:42:53.605Z,2.30
2018-01-16T19:45:21.922Z,2.30
2018-01-16T19:47:50.213Z,2.30
2018-01-16T19:50:17.827Z,2.30
2018-01-16T19:52:45.947Z,2.40
2018-01-16T19:55:13.607Z,2.40
2018-01-16T19:57:41.169Z,2.50
2018-01-16T20:00:08.750Z,2.50
2018-01-16T20:02:36.277Z,2.50
2018-01-16T20:05:03.830Z,2.50
2018-01-16T20:07:31.353Z,2.60
2018-01-16T20:09:59.661Z,2.60
2018-01-16T20:12:27.186Z,2.50
2018-01-16T20:14:55.514Z,2.60
2018-01-16T20:17:23.050Z,2.60
2018-01-16T20:19:50.601Z,2.60
2018-01-16T20:22:18.133Z,2.60
2018-01-16T20:24:46.474Z,2.70
2018-01-16T20:27:14.785Z,2.80
2018-01-16T20:29:43.330Z,2.80
2018-01-16T20:32:10.875Z,2.80
2018-01-16T20:34:38.398Z,2.80
2018-01-16T20:37:06.722Z,2.90
2018-01-16T20:39:35.017Z,3.00
2018-01-16T20:42:02.561Z,3.00
2018-01-16T20:44:30.082Z,3.10
2018-01-16T20:46:57.638Z,3.20
2018-01-16T20:49:25.194Z,3.20
2018-01-16T20:51:53.582Z,3.40
2018-01-16T20:54:21.130Z,3.30
2018-01-16T20:56:49.466Z,3.40
2018-01-16T20:59:16.985Z,3.40
2018-01-16T21:01:44.541Z,3.50
2018-01-16T21:04:12.065Z,3.50
2018-01-16T21:06:39.623Z,3.50
2018-01-16T21:09:07.160Z,3.50
2018-01-16T21:11:34.734Z,3.60
2018-01-16T21:14:02.266Z,3.70
2018-01-16T21:16:29.817Z,3.60
2018-01-16T21:18:57.337Z,3.60
2018-01-16T21:21:25.666Z,3.60
2018-01-16T21:23:53.199Z,3.60
2018-01-16T21:26:20.755Z,3.60
2018-01-16T21:28:48.283Z,3.50
2018-01-16T21:31:15.846Z,3.60
2018-01-16T21:33:43.370Z,3.60
2018-01-16T21:36:10.901Z,3.60
2018-01-16T21:38:38.476Z,3.60
2018-01-16T21:41:06.003Z,3.60
2018-01-16T21:43:33.566Z,3.60
2018-01-16T21:46:01.095Z,3.60
2018-01-16T21:48:28.664Z,3.60
2018-01-16T21:50:56.962Z,3.50
2018-01-16T21:53:24.521Z,3.50
2018-01-16T21:55:52.054Z,3.50
2018-01-16T21:58:19.610Z,3.50
2018-01-16T22:00:47.138Z,3.50
2018-01-16T22:03:14.706Z,3.60
2018-01-16T22:05:42.239Z,3.50
2018-01-16T22:08:09.790Z,3.50
2018-01-16T22:10:37.316Z,3.30
2018-01-16T22:13:04.884Z,3.30
2018-01-16T22:15:33.173Z,3.10
2018-01-16T22:18:00.730Z,3.10
2018-01-16T22:20:29.022Z,3.10
2018-01-16T22:22:56.581Z,3.10
2018-01-16T22:25:24.118Z,3.10
2018-01-16T22:27:52.446Z,3.10
2018-01-16T22:30:19.979Z,3.10
2018-01-16T22:32:47.531Z,3.10
2018-01-16T22:35:15.070Z,3.10
2018-01-16T22:37:43.377Z,3.10
2018-01-16T22:40:10.945Z,3.10
2018-01-16T22:42:38.476Z,3.20
2018-01-16T22:45:06.789Z,3.30
2018-01-16T22:47:34.318Z,3.20
2018-01-16T22:50:02.661Z,3.30
2018-01-16T22:52:30.181Z,3.30
2018-01-16T22:54:57.737Z,3.30
2018-01-16T22:57:25.281Z,3.40
2018-01-16T22:59:52.834Z,3.40
2018-01-16T23:02:21.127Z,3.50
2018-01-16T23:04:48.714Z,3.50
2018-01-16T23:07:16.233Z,3.50
2018-01-16T23:09:43.782Z,3.60
2018-01-16T23:12:12.073Z,3.70
2018-01-16T23:14:39.646Z,3.60
2018-01-16T23:17:07.172Z,3.60
2018-01-16T23:19:35.489Z,3.70
2018-01-16T23:22:03.013Z,3.70
2018-01-16T23:24:31.399Z,3.70
2018-01-16T23:26:59.743Z,3.70
2018-01-16T23:29:27.295Z,3.70
2018-01-16T23:34:26.579Z,3.60
2018-01-16T23:36:54.106Z,3.60
2018-01-16T23:39:22.429Z,3.70
2018-01-16T23:41:49.954Z,3.60
2018-01-16T23:44:18.242Z,3.70
2018-01-16T23:46:45.786Z,3.60
2018-01-16T23:49:14.083Z,3.70
2018-01-16T23:51:41.626Z,3.70
2018-01-16T23:54:09.914Z,3.70
2018-01-16T23:56:37.487Z,3.70
2018-01-16T23:59:05.010Z,3.60
